Tiempo atmosférico en la estación meteorológica de Córdoba, Córdoba (525 m.)



Fecha
DESCASC
Temp. máxima en grados centígrados (hora)
DESCASC
Temp. mínima en grados centígrados (hora)
DESCASC
Temp. media en grados centígrados
DESCASC
Racha de viento máxima en m/sg (hora)
DESCASC
Velocidad máxima media en intervalos de 10 minutos(hora)
DESCASC
Precipitaciones diarias en mm
DESCASC
Precipitaciones de 00:00 a 06:00 en mm
DESCASC
Precipitaciones de 06:00 a 12:00 en mm
DESCASC
Precipitaciones de 12:00 a 18:00 en mm
DESCASC
Precipitaciones de 18:00 a 24:00 en mm
DESCASC

Gráficas

Temp. máximas Temp. mínimas Temp. medias Precipitaciones Rachas de viento máximas Velocidades máximas media en intervalos de 10 minutos

Datos horarios

Fecha y hora oficial Temperatura (ºC) Velocidad del viento (km/h) Dirección del viento Racha (km/h) Dirección de racha Precipitación (mm) Presión (hPa) Tendencia (hPa) Humedad (%)
2018-05-21 23:00:00 13.6 8 Sudoeste 19 Sudoeste 0 -- -- 92
2018-05-21 22:00:00 14 11 Sudoeste 15 Sudoeste 0 -- -- 88
2018-05-21 21:00:00 16 9 Sudoeste 17 Sudoeste 0 -- -- 81
2018-05-21 20:00:00 17.6 4 Sudoeste 13 Sudoeste 0 -- -- 76
2018-05-21 19:00:00 18.9 8 Oeste 17 Oeste 0 -- -- 74
2018-05-21 18:00:00 15.9 3 Noroeste 18 Noroeste 2.8 -- -- 88
2018-05-21 17:00:00 17.1 13 Noroeste 26 Norte 0.8 -- -- 75
2018-05-21 16:00:00 21.2 4 Norte 33 Sudoeste 0 -- -- 56
2018-05-21 15:00:00 21.4 16 Sudoeste 27 Sudoeste 0 -- -- 54
2018-05-21 14:00:00 19.3 8 Oeste 19 Oeste 0 -- -- 62
2018-05-21 13:00:00 18.8 8 Oeste 17 Oeste 0 -- -- 66
2018-05-21 12:00:00 18.2 9 Sudoeste 17 Sudoeste 0 -- -- 67
2018-05-21 11:00:00 17.5 0 Calma 9 Sudoeste 0 -- -- 73
2018-05-21 10:00:00 17.1 3 Nordeste 7 Este 0 -- -- 75
2018-05-21 09:00:00 13.4 0 Calma 5 Nordeste 0 -- -- 95
2018-05-21 08:00:00 11 3 Nordeste 5 Nordeste 0 -- -- 96
2018-05-21 07:00:00 10.6 3 Nordeste 5 Nordeste 0 -- -- 95
2018-05-21 06:00:00 11 3 Nordeste 5 Nordeste 0 -- -- 94
2018-05-21 05:00:00 11.5 0 Calma 4 Nordeste 0 -- -- 93
2018-05-21 04:00:00 12 0 Calma 4 Noroeste 0 -- -- 92
2018-05-21 03:00:00 12.8 0 Calma 3 Este 0 -- -- 91
2018-05-21 02:00:00 12.9 2 Este 9 Sur 0 -- -- 89
2018-05-21 01:00:00 13 0 Calma 8 Sur 0 -- -- 87
2018-05-21 00:00:00 13.2 0 Calma 12 Oeste 0 -- -- 87
2018-05-20 23:00:00 13.7 8 Oeste 23 Sudoeste 0 -- -- 85
2018-05-20 22:00:00 13.5 4 Oeste 28 Sudoeste 0 -- -- 88
2018-05-20 21:00:00 14.4 19 Sudoeste 33 Sudoeste 0 -- -- 83
2018-05-20 20:00:00 16.3 11 Sudoeste 28 Sudoeste 0 -- -- 69
2018-05-20 19:00:00 18.8 13 Sudoeste 23 Sudoeste 0 -- -- 67
2018-05-20 18:00:00 20.1 8 Sudoeste 14 Oeste 0 -- -- 63
2018-05-20 17:00:00 20.9 4 Noroeste 15 Sudoeste 0 -- -- 62
2018-05-20 16:00:00 15.2 9 Norte 15 Norte 0 -- -- 89
2018-05-20 15:00:00 13.9 4 Norte 28 Oeste 4.4 -- -- 90
2018-05-20 14:00:00 14.6 15 Sudoeste 25 Oeste 2 -- -- 88
2018-05-20 13:00:00 20 5 Norte 21 Este 0 -- -- 56
2018-05-20 12:00:00 19.7 6 Nordeste 21 Norte 0 -- -- 63
2018-05-20 11:00:00 19.3 8 Nordeste 15 Norte 0 -- -- 65
2018-05-20 10:00:00 16.4 3 Nordeste 10 Este 0 -- -- 71
2018-05-20 09:00:00 13.7 2 Nordeste 4 Nordeste 0 -- -- 87
2018-05-20 08:00:00 12.2 0 Calma 3 Norte 0 -- -- 93
2018-05-20 07:00:00 10.6 0 Calma 5 Nordeste 0 -- -- 92
2018-05-20 06:00:00 11.1 0 Calma 5 Nordeste 0 -- -- 90
2018-05-20 05:00:00 11.4 2 Nordeste 6 Nordeste 0 -- -- 90
2018-05-20 04:00:00 11.8 3 Nordeste 6 Nordeste 0 -- -- 89
2018-05-20 03:00:00 12.2 2 Norte 4 Nordeste 0 -- -- 87
2018-05-20 02:00:00 13.3 2 Nordeste 8 Norte 0 -- -- 82
2018-05-20 01:00:00 12.9 6 Sudoeste 9 Oeste 0 -- -- 80
2018-05-20 00:00:00 13.8 4 Norte 6 Noroeste 0 -- -- 76
2018-05-19 23:00:00 15.6 0 Calma 8 Norte 0 -- -- 68
2018-05-19 22:00:00 17.3 4 Norte 15 Noroeste 0 -- -- 62
2018-05-19 21:00:00 17.9 2 Oeste 22 Sudoeste 0 -- -- 58
2018-05-19 20:00:00 18.6 12 Oeste 22 Oeste 0 -- -- 56
2018-05-19 19:00:00 19.2 5 Noroeste 26 Norte 0 -- -- 58
2018-05-19 18:00:00 19.7 8 Norte 22 Norte 0 -- -- 55
2018-05-19 17:00:00 20 7 Noroeste 20 Oeste 0 -- -- 55
2018-05-19 16:00:00 20.6 8 Norte 26 Nordeste 0 -- -- 49
2018-05-19 15:00:00 22.5 10 Noroeste 22 Nordeste 0 -- -- 42
2018-05-19 14:00:00 22.8 12 Norte 21 Norte 0 -- -- 41
2018-05-19 13:00:00 22.9 6 Nordeste 17 Nordeste 0 -- -- 45
2018-05-19 12:00:00 21.9 8 Nordeste 16 Este 0 -- -- 49
2018-05-19 11:00:00 20.8 5 Norte 12 Nordeste 0 -- -- 52
2018-05-19 10:00:00 17.7 5 Norte 11 Nordeste 0 -- -- 66
2018-05-19 09:00:00 15.2 5 Norte 9 Norte 0 -- -- 76
2018-05-19 08:00:00 12.9 0 Calma 5 Nordeste 0 -- -- 87
2018-05-19 07:00:00 12.8 3 Nordeste 4 Nordeste 0 -- -- 88
2018-05-19 06:00:00 12.9 0 Calma 7 Norte 0 -- -- 86
2018-05-19 05:00:00 13.4 0 Calma 9 Sudoeste 0 -- -- 82
2018-05-19 04:00:00 13.5 0 Calma 14 Norte 0 -- -- 82
2018-05-19 03:00:00 13.1 3 Nordeste 10 Norte 0 -- -- 88
2018-05-19 02:00:00 13 0 Calma 11 Norte 0 -- -- 84
2018-05-19 01:00:00 14.3 3 Este 12 Oeste 0 -- -- 75
2018-05-19 00:00:00 14.5 3 Oeste 7 Oeste 0 -- -- 76
2018-05-18 23:00:00 15.3 4 Oeste 8 Oeste 0 -- -- 79
2018-05-18 22:00:00 16.9 2 Norte 5 Noroeste 0 -- -- 73
2018-05-18 21:00:00 18.6 0 Calma 9 Sur 0 -- -- 64
2018-05-18 20:00:00 20.2 0 Calma 7 Norte 0 -- -- 59
2018-05-18 19:00:00 21.5 3 Noroeste 14 Oeste 0 -- -- 54
2018-05-18 18:00:00 21.4 6 Norte 12 Noroeste 0 -- -- 49
2018-05-18 17:00:00 21.2 4 Norte 21 Nordeste 0.2 -- -- 48
2018-05-18 16:00:00 19.8 13 Nordeste 22 Nordeste 0 -- -- 56
2018-05-18 15:00:00 15.7 12 Nordeste 23 Norte 0 -- -- 83
2018-05-18 14:00:00 17 12 Norte 20 Norte 1.2 -- -- 80
2018-05-18 13:00:00 19.2 6 Nordeste 11 Nordeste 0 -- -- 64
2018-05-18 12:00:00 18.5 5 Sur 11 Sudoeste 0 -- -- 64
2018-05-18 11:00:00 17.2 8 Sudoeste 17 Sudoeste 0 -- -- 68
2018-05-18 10:00:00 15.7 6 Sudoeste 12 Sudoeste 0 -- -- 78
2018-05-18 09:00:00 14 2 Sudoeste 4 Oeste 0 -- -- 91
2018-05-18 08:00:00 12 2 Sudeste 8 Sudoeste 0 -- -- 93
2018-05-18 07:00:00 12 3 Sudoeste 13 Sudoeste 0 -- -- 91
2018-05-18 06:00:00 12.2 5 Sur 12 Oeste 0 -- -- 90
2018-05-18 05:00:00 12.5 8 Sudoeste 14 Sudoeste 0 -- -- 88
2018-05-18 04:00:00 12.8 8 Sudoeste 19 Sudoeste 0 -- -- 84
2018-05-18 03:00:00 13.3 7 Sudoeste 15 Sudoeste 0 -- -- 80
2018-05-18 02:00:00 13.9 7 Sudoeste 16 Sur 0 -- -- 76
2018-05-18 01:00:00 15.4 8 Sur 31 Sudoeste 0 -- -- 70
2018-05-18 00:00:00 16.8 18 Sudoeste 39 Sudoeste 0 -- -- 67
2018-05-17 23:00:00 18.1 20 Sudoeste 33 Sudoeste 0 -- -- 61
2018-05-17 22:00:00 19.7 4 Sudoeste 12 Sur 0 -- -- 42
2018-05-17 21:00:00 22.2 5 Oeste 13 Sudoeste 0 -- -- 39
2018-05-17 20:00:00 25.5 5 Sudoeste 16 Sudoeste 0 -- -- 27
2018-05-17 19:00:00 26.6 4 Sur 19 Sudoeste 0 -- -- 27
2018-05-17 18:00:00 26.4 9 Sudoeste 23 Sudoeste 0 -- -- 27
2018-05-17 17:00:00 25.9 8 Sudoeste 19 Sur 0 -- -- 28
2018-05-17 16:00:00 25.7 6 Oeste 23 Este 0 -- -- 28
2018-05-17 15:00:00 24.6 6 Nordeste 23 Nordeste 0 -- -- 31
2018-05-17 14:00:00 23.7 8 Nordeste 21 Nordeste 0 -- -- 33
2018-05-17 13:00:00 22.3 7 Nordeste 24 Este 0 -- -- 33
2018-05-17 12:00:00 21.6 8 Nordeste 23 Nordeste 0 -- -- 36
2018-05-17 11:00:00 19.7 11 Este 19 Nordeste 0 -- -- 41
2018-05-17 10:00:00 18.3 9 Este 19 Este 0 -- -- 46
2018-05-17 09:00:00 15.4 4 Norte 11 Norte 0 -- -- 64
2018-05-17 08:00:00 11.2 4 Nordeste 7 Nordeste 0 -- -- 81
2018-05-17 07:00:00 10.5 3 Norte 7 Norte 0 -- -- 78
2018-05-17 06:00:00 11.5 2 Norte 12 Oeste 0 -- -- 75
2018-05-17 05:00:00 11.5 8 Sudoeste 24 Sudoeste 0 -- -- 70
2018-05-17 04:00:00 12.9 10 Sudoeste 22 Oeste 0 -- -- 66
2018-05-17 03:00:00 12.3 0 Calma 5 Nordeste 0 -- -- 84
2018-05-17 02:00:00 13.3 3 Nordeste 5 Nordeste 0 -- -- 77
2018-05-17 01:00:00 14.8 0 Calma 7 Este 0 -- -- 73
2018-05-17 00:00:00 16.4 4 Sur 9 Sudoeste 0 -- -- 62
2018-05-16 23:00:00 17.5 3 Norte 10 Sur 0 -- -- 59
2018-05-16 22:00:00 19.4 4 Nordeste 6 Nordeste 0 -- -- 59
2018-05-16 21:00:00 23.2 2 Norte 13 Norte 0 -- -- 43
2018-05-16 20:00:00 25.9 7 Nordeste 15 Este 0 -- -- 31
2018-05-16 19:00:00 25.4 10 Nordeste 19 Este 0 -- -- 32
2018-05-16 18:00:00 27.1 12 Este 26 Sudeste 0 -- -- 27
2018-05-16 17:00:00 26.8 10 Nordeste 28 Sudeste 0 -- -- 28
2018-05-16 16:00:00 26.4 10 Este 23 Este 0 -- -- 27
2018-05-16 15:00:00 25.8 8 Este 18 Este 0 -- -- 29
2018-05-16 14:00:00 24.9 7 Este 24 Sudeste 0 -- -- 33
2018-05-16 13:00:00 23.3 9 Este 22 Nordeste 0 -- -- 39
2018-05-16 12:00:00 21.8 7 Nordeste 16 Este 0 -- -- 44
2018-05-16 11:00:00 20.6 6 Este 13 Este 0 -- -- 43
2018-05-16 10:00:00 19.3 5 Este 11 Este 0 -- -- 45
2018-05-16 09:00:00 14.7 0 Calma 6 Nordeste 0 -- -- 66
2018-05-16 08:00:00 10.6 3 Nordeste 5 Nordeste 0 -- -- 86
2018-05-16 07:00:00 10.5 0 Calma 6 Este 0 -- -- 78
2018-05-16 06:00:00 10.8 0 Calma 8 Nordeste 0 -- -- 79
2018-05-16 05:00:00 11.3 6 Nordeste 9 Nordeste 0 -- -- 79
2018-05-16 04:00:00 12.8 0 Calma 6 Nordeste 0 -- -- 72
2018-05-16 03:00:00 13.3 4 Este 9 Este 0 -- -- 64
2018-05-16 02:00:00 13.2 4 Nordeste 7 Este 0 -- -- 66
2018-05-16 01:00:00 13 4 Nordeste 6 Nordeste 0 -- -- 70
2018-05-16 00:00:00 13.6 4 Nordeste 6 Nordeste 0 -- -- 67
2018-05-15 23:00:00 15.5 3 Nordeste 8 Norte 0 -- -- 63
2018-05-15 22:00:00 18.3 6 Nordeste 12 Nordeste 0 -- -- 51
2018-05-15 21:00:00 21.6 8 Norte 22 Norte 0 -- -- 35
2018-05-15 20:00:00 24 13 Norte 22 Norte 0 -- -- 30
2018-05-15 19:00:00 25.6 8 Nordeste 21 Nordeste 0 -- -- 28
2018-05-15 18:00:00 25.7 10 Nordeste 22 Norte 0 -- -- 29
2018-05-15 17:00:00 26 9 Norte 18 Norte 0 -- -- 26
2018-05-15 16:00:00 25.5 8 Oeste 19 Este 0 -- -- 27
2018-05-15 15:00:00 24.3 8 Nordeste 18 Nordeste 0 -- -- 30
2018-05-15 14:00:00 23.4 6 Sudeste 19 Este 0 -- -- 30
2018-05-15 13:00:00 22.2 9 Este 19 Este 0 -- -- 31
2018-05-15 12:00:00 21 9 Nordeste 24 Nordeste 0 -- -- 33
2018-05-15 11:00:00 19.4 13 Nordeste 24 Nordeste 0 -- -- 39
2018-05-15 10:00:00 17.7 9 Nordeste 27 Nordeste 0 -- -- 40
2018-05-15 09:00:00 14.8 5 Nordeste 10 Nordeste 0 -- -- 54
2018-05-15 08:00:00 11.3 2 Este 18 Norte 0 -- -- 63
2018-05-15 07:00:00 9.8 3 Nordeste 10 Norte 0 -- -- 78
2018-05-15 06:00:00 10.3 6 Norte 12 Norte 0 -- -- 78
2018-05-15 05:00:00 10.6 4 Nordeste 11 Nordeste 0 -- -- 77
2018-05-15 04:00:00 10.8 4 Nordeste 8 Este 0 -- -- 78
2018-05-15 03:00:00 10.9 4 Nordeste 10 Nordeste 0 -- -- 81
2018-05-15 02:00:00 12.3 6 Nordeste 12 Nordeste 0 -- -- 79
2018-05-15 01:00:00 12.4 4 Nordeste 11 Norte 0 -- -- 77
2018-05-15 00:00:00 14.1 8 Norte 12 Norte 0 -- -- 69
2018-05-14 23:00:00 15.5 6 Nordeste 13 Norte 0 -- -- 61
2018-05-14 22:00:00 16.8 6 Nordeste 12 Norte 0 -- -- 65
2018-05-14 21:00:00 19.7 7 Nordeste 20 Nordeste 0 -- -- 44
2018-05-14 20:00:00 21.8 10 Nordeste 24 Este 0 -- -- 37
2018-05-14 19:00:00 22.6 9 Nordeste 25 Nordeste 0 -- -- 35
2018-05-14 18:00:00 23.2 9 Norte 22 Nordeste 0 -- -- 35
2018-05-14 17:00:00 23.7 10 Norte 22 Norte 0 -- -- 37
2018-05-14 16:00:00 23.8 8 Noroeste 27 Norte 0 -- -- 32
2018-05-14 15:00:00 21.9 4 Este 21 Nordeste 0 -- -- 33
2018-05-14 14:00:00 21.3 8 Norte 21 Nordeste 0 -- -- 34
2018-05-14 13:00:00 20 5 Noroeste 18 Sudeste 0 -- -- 37
2018-05-14 12:00:00 18.4 7 Este 16 Este 0 -- -- 37
2018-05-14 11:00:00 17 7 Este 18 Nordeste 0 -- -- 43
2018-05-14 10:00:00 15.7 9 Nordeste 17 Nordeste 0 -- -- 47
2018-05-14 09:00:00 12.8 8 Norte 13 Nordeste 0 -- -- 61
2018-05-14 08:00:00 9.8 5 Norte 12 Norte 0 -- -- 70
2018-05-14 07:00:00 9.6 9 Norte 20 Norte 0 -- -- 69
2018-05-14 06:00:00 10.5 10 Norte 26 Norte 0 -- -- 63
2018-05-14 05:00:00 11.2 11 Norte 22 Norte 0 -- -- 59
2018-05-14 04:00:00 11.6 10 Norte 21 Norte 0 -- -- 58
2018-05-14 03:00:00 12.2 11 Norte 24 Noroeste 0 -- -- 56
2018-05-14 02:00:00 12.3 11 Norte 22 Noroeste 0 -- -- 54
2018-05-14 01:00:00 13.2 10 Norte 24 Norte 0 -- -- 48
2018-05-11 20:00:00 -- -- -- -- -- -- -- -- --
2018-05-11 19:00:00 22.8 12 Sudoeste 27 Sudoeste 0 -- -- 45
2018-05-11 18:00:00 23.4 13 Sudoeste 26 Oeste 0 -- -- 44
2018-05-11 17:00:00 23.7 11 Oeste 27 Sudoeste 0 -- -- 40
2018-05-11 16:00:00 22.9 11 Oeste 27 Sudoeste 0 -- -- 44
2018-05-11 15:00:00 22 13 Sudoeste 22 Sudoeste 0 -- -- 48
2018-05-11 14:00:00 21.2 9 Oeste 21 Sudoeste 0 -- -- 56
2018-05-11 13:00:00 20.2 13 Sudoeste 24 Sudoeste 0 -- -- 60
2018-05-11 12:00:00 18.3 8 Sudoeste 22 Sudoeste 0 -- -- 71
2018-05-11 11:00:00 17.2 10 Sudoeste 23 Sudoeste 0 -- -- 72
2018-05-11 10:00:00 15.4 6 Sudoeste 11 Sudoeste 0 -- -- 78
2018-05-11 09:00:00 11.7 2 Sudoeste 4 Sudoeste 0 -- -- 96
2018-05-11 08:00:00 9.6 3 Nordeste 5 Nordeste 0 -- -- 96
2018-05-11 07:00:00 9.5 3 Nordeste 5 Nordeste 0 -- -- 95
2018-05-11 06:00:00 9.9 3 Nordeste 6 Nordeste 0 -- -- 94
2018-05-11 05:00:00 10.5 0 Calma 4 Oeste 0 -- -- 93
2018-05-11 04:00:00 10.8 0 Calma 3 Nordeste 0 -- -- 92
2018-05-11 03:00:00 11.2 2 Norte 5 Sudoeste 0 -- -- 90
2018-05-11 02:00:00 11.5 0 Calma 6 Oeste 0 -- -- 87
2018-05-11 01:00:00 12 3 Sudoeste 9 Sudoeste 0 -- -- 83
2018-05-11 00:00:00 13.4 6 Sudoeste 18 Sudoeste 0 -- -- 78
2018-05-10 23:00:00 14.6 12 Sudoeste 19 Sudoeste 0 -- -- 71
2018-05-10 22:00:00 15.8 9 Sudoeste 17 Sudoeste 0 -- -- 72
2018-05-10 21:00:00 18 11 Sudoeste 21 Sudoeste 0 -- -- 63
2018-05-10 20:00:00 21.1 12 Sudoeste 18 Sudoeste 0 -- -- 55
2018-05-10 19:00:00 22 8 Sudoeste 18 Sudoeste 0 -- -- 52
2018-05-10 18:00:00 22 7 Sudoeste 19 Sudoeste 0 -- -- 51
2018-05-10 17:00:00 20.6 9 Sudoeste 19 Sudoeste 0 -- -- 57
2018-05-10 16:00:00 20.5 6 Sudoeste 21 Sudoeste 0 -- -- 59
2018-05-10 15:00:00 20.1 11 Sudoeste 20 Sur 0 -- -- 62
2018-05-10 14:00:00 18.8 6 Sudoeste 17 Sudoeste 0 -- -- 68
2018-05-10 13:00:00 17.5 9 Sudoeste 14 Sudoeste 0 -- -- 75
2018-05-10 12:00:00 15.6 5 Sudoeste 9 Sudoeste 0 -- -- 84
2018-05-10 11:00:00 14 0 Calma 9 Sudoeste 0 -- -- 98
2018-05-10 10:00:00 13.1 3 Sudoeste 9 Sudoeste 0 -- -- 98
2018-05-10 09:00:00 12.9 5 Sudoeste 16 Sudoeste 0 -- -- 98
2018-05-10 08:00:00 12.8 9 Sudoeste 17 Oeste 0 -- -- 98
2018-05-10 07:00:00 12.8 8 Sudoeste 14 Oeste 0 -- -- 97
2018-05-10 06:00:00 12.9 5 Sudoeste 19 Oeste 0 -- -- 97
2018-05-10 05:00:00 13.1 5 Oeste 19 Sudoeste 0 -- -- 97
2018-05-10 04:00:00 13.1 12 Sudoeste 23 Sudoeste 0 -- -- 96
2018-05-10 03:00:00 13.4 15 Sudoeste 23 Sudoeste 0 -- -- 95
2018-05-10 02:00:00 14 9 Sudoeste 18 Sudoeste 0 -- -- 93
2018-05-10 01:00:00 14.5 14 Sudoeste 27 Oeste 0 -- -- 92
2018-05-10 00:00:00 14.9 18 Sudoeste 28 Sudoeste 0 -- -- 90
2018-05-09 23:00:00 15.7 15 Sudoeste 33 Oeste 0 -- -- 91
2018-05-09 22:00:00 15.6 15 Sudoeste 28 Sudoeste 0 -- -- 92
2018-05-09 21:00:00 15.5 19 Sudoeste 29 Sudoeste 0 -- -- 91
2018-05-09 20:00:00 16.1 21 Sudoeste 32 Sudoeste 0 -- -- 89
2018-05-09 19:00:00 17.3 23 Sudoeste 33 Oeste 0 -- -- 83
2018-05-09 18:00:00 19.2 25 Sudoeste 40 Sudoeste 0 -- -- 72
2018-05-09 17:00:00 18.8 19 Sudoeste 31 Oeste 0 -- -- 78
2018-05-09 16:00:00 17.7 17 Sudoeste 29 Sudoeste 0 -- -- 78
2018-05-09 15:00:00 16.9 13 Sudoeste 22 Oeste 0 -- -- 83
2018-05-09 14:00:00 15 11 Sudoeste 21 Sudoeste 0 -- -- 91
2018-05-09 13:00:00 14.8 12 Sudoeste 19 Sudoeste 0 -- -- 92
2018-05-09 12:00:00 14.9 8 Sudoeste 15 Sudoeste 0 -- -- 91
2018-05-09 11:00:00 14.5 9 Sudoeste 14 Sudoeste 0 -- -- 95
2018-05-09 10:00:00 13.3 8 Sudoeste 15 Sudoeste 0 -- -- 97
2018-05-09 09:00:00 12.4 5 Sudoeste 8 Sudoeste 0 -- -- 96
2018-05-09 08:00:00 11.7 4 Sudoeste 7 Sudoeste 0 -- -- 95
2018-05-09 07:00:00 11.4 3 Sudoeste 5 Nordeste 0 -- -- 95
2018-05-09 06:00:00 12.2 2 Norte 8 Sudoeste 0 -- -- 95
2018-05-09 05:00:00 12.4 0 Calma 6 Sur 0 -- -- 93
2018-05-09 04:00:00 13.3 0 Calma 6 Norte 0 -- -- 91
2018-05-09 03:00:00 14.4 3 Sudeste 11 Este 0 -- -- 89
2018-05-09 02:00:00 14.7 2 Sur 28 Noroeste 0.2 -- -- 88
2018-05-09 01:00:00 15.7 7 Norte 20 Nordeste 0.2 -- -- 84
2018-05-09 00:00:00 15.2 7 Norte 22 Norte 0 -- -- 82
2018-05-08 23:00:00 15.9 15 Norte 27 Norte 0 -- -- 79
2018-05-08 22:00:00 15.7 3 Oeste 12 Noroeste 0 -- -- 86
2018-05-08 21:00:00 16.9 6 Sudoeste 19 Oeste 0 -- -- 86
2018-05-08 20:00:00 18 7 Sudoeste 12 Oeste 0 -- -- 87
2018-05-08 19:00:00 17.8 3 Noroeste 8 Noroeste 0.4 -- -- 85
2018-05-08 18:00:00 18.7 5 Oeste 17 Oeste 0 -- -- 74
2018-05-08 17:00:00 19.1 5 Noroeste 17 Oeste 0.2 -- -- 75
2018-05-08 16:00:00 16.1 6 Sudoeste 35 Oeste 1 -- -- 88
2018-05-08 15:00:00 19.6 13 Oeste 24 Noroeste 0 -- -- 63
2018-05-08 14:00:00 22.7 6 Sudeste 15 Este 0 -- -- 64
2018-05-08 13:00:00 21.1 9 Este 22 Este 0 -- -- 69
2018-05-08 12:00:00 19.7 10 Este 18 Este 0 -- -- 73
2018-05-08 11:00:00 17.8 6 Sudeste 16 Este 0 -- -- 76
2018-05-08 10:00:00 13.9 4 Sur 9 Sudoeste 0 -- -- 95
2018-05-08 09:00:00 12.3 2 Este 6 Este 0 -- -- 95
2018-05-08 08:00:00 11.7 0 Calma 5 Sudoeste 0 -- -- 94
2018-05-08 07:00:00 11.7 3 Sudoeste 7 Sudoeste 0 -- -- 93
2018-05-08 06:00:00 12.4 5 Sudoeste 7 Sur 0 -- -- 91
2018-05-08 05:00:00 12.8 0 Calma 3 Noroeste 0 -- -- 90
2018-05-08 04:00:00 12.7 0 Calma 8 Sudoeste 0 -- -- 89
2018-05-08 03:00:00 13 2 Sudoeste 9 Sudoeste 0 -- -- 87
2018-05-08 02:00:00 13.5 3 Oeste 14 Sur 0 -- -- 84
2018-05-08 01:00:00 15.7 6 Noroeste 18 Norte 0 -- -- 74
2018-05-08 00:00:00 15.8 2 Oeste 20 Noroeste 0 -- -- 72
2018-05-07 23:00:00 16.2 8 Norte 23 Norte 0 -- -- 72
2018-05-07 22:00:00 17.5 14 Norte 28 Norte 0 -- -- 63
2018-05-07 21:00:00 18.7 10 Norte 27 Norte 0 -- -- 66
2018-05-07 20:00:00 19.8 10 Noroeste 26 Norte 0 -- -- 60
2018-05-07 19:00:00 23.7 7 Oeste 20 Sudoeste 0 -- -- 45
2018-05-07 18:00:00 24 12 Oeste 20 Sudoeste 0 -- -- 44
2018-05-07 17:00:00 23.4 8 Oeste 16 Sudoeste 0 -- -- 41
2018-05-07 16:00:00 22.9 4 Sudeste 17 Sudeste 0 -- -- 45
2018-05-07 15:00:00 23.1 6 Sudeste 18 Sur 0 -- -- 46
2018-05-07 14:00:00 21.9 6 Sudoeste 18 Sur 0 -- -- 49
2018-05-07 13:00:00 21.5 4 Sudeste 14 Sudeste 0 -- -- 54
2018-05-07 12:00:00 20.1 5 Sudeste 11 Sudeste 0 -- -- 58
2018-05-07 11:00:00 18.8 3 Sudeste 13 Este 0 -- -- 62
2018-05-07 10:00:00 17.5 7 Este 13 Este 0 -- -- 68
2018-05-07 09:00:00 13.5 7 Norte 11 Nordeste 0 -- -- 96
2018-05-07 08:00:00 10.9 4 Este 8 Este 0 -- -- 96
2018-05-07 07:00:00 10.8 4 Este 8 Nordeste 0 -- -- 96
2018-05-07 06:00:00 10.7 5 Este 8 Este 0 -- -- 95
2018-05-07 05:00:00 11.1 3 Este 8 Nordeste 0 -- -- 95
2018-05-07 04:00:00 11.3 2 Nordeste 3 Nordeste 0 -- -- 95
2018-05-07 03:00:00 11.6 2 Sudeste 6 Nordeste 0 -- -- 94
2018-05-07 02:00:00 12.2 2 Nordeste 4 Norte 0 -- -- 94
2018-05-07 01:00:00 12 0 Calma 9 Nordeste 0 -- -- 93
2018-05-07 00:00:00 12.6 3 Norte 9 Noroeste 0 -- -- 93
2018-05-06 23:00:00 13.3 5 Sudoeste 20 Nordeste 0.2 -- -- 91
2018-05-06 22:00:00 13.7 9 Norte 18 Norte 1.2 -- -- 91
2018-05-06 21:00:00 13.8 5 Sudeste 25 Sur 3.6 -- -- 88
2018-05-06 20:00:00 16.1 7 Sur 34 Este 3 -- -- 81
2018-05-06 19:00:00 23.3 5 Oeste 12 Sudoeste 0 -- -- 49
2018-05-06 18:00:00 22.5 2 Nordeste 20 Nordeste 0 -- -- 44
2018-05-06 17:00:00 23.2 13 Nordeste 24 Nordeste 0 -- -- 48
2018-05-06 16:00:00 21.6 9 Nordeste 18 Nordeste 0 -- -- 50
2018-05-06 15:00:00 23.3 8 Este 18 Sudeste 0 -- -- 42
2018-05-06 14:00:00 22.8 6 Nordeste 21 Este 0 -- -- 48
2018-05-06 13:00:00 21 6 Este 21 Este 0 -- -- 53
2018-05-06 12:00:00 19.1 10 Este 26 Este 0 -- -- 56
2018-05-06 11:00:00 18.5 10 Este 22 Este 0 -- -- 62
2018-05-06 10:00:00 17.2 6 Este 17 Este 0 -- -- 64
2018-05-06 09:00:00 14.8 2 Nordeste 4 Nordeste 0 -- -- 73
2018-05-06 08:00:00 13.5 0 Calma 8 Este 0 -- -- 81
2018-05-06 07:00:00 13.5 3 Nordeste 6 Sudoeste 0 -- -- 79
2018-05-06 06:00:00 13.4 5 Sudoeste 8 Sudoeste 0 -- -- 74
2018-05-06 05:00:00 13.8 5 Sudoeste 9 Sudoeste 0 -- -- 75
2018-05-06 04:00:00 14 0 Calma 10 Sudeste 0 -- -- 78
2018-05-06 03:00:00 14.2 0 Calma 17 Oeste 0 -- -- 71
2018-05-06 02:00:00 14.8 10 Oeste 15 Oeste 0 -- -- 69
2018-05-06 01:00:00 14.9 10 Oeste 14 Oeste 0 -- -- 68
2018-05-06 00:00:00 16.7 5 Sudeste 11 Este 0 -- -- 60
2018-05-05 23:00:00 16.4 0 Calma 9 Oeste 0 -- -- 63
2018-05-05 22:00:00 17.8 3 Oeste 8 Oeste 0 -- -- 59
2018-05-05 21:00:00 21.1 2 Oeste 11 Oeste 0 -- -- 51
2018-05-05 20:00:00 24.5 3 Noroeste 18 Sudoeste 0 -- -- 37
2018-05-05 19:00:00 25 7 Sudoeste 19 Sudoeste 0 -- -- 36
2018-05-05 18:00:00 25 6 Sudoeste 14 Sudoeste 0 -- -- 32
2018-05-05 17:00:00 24.8 5 Nordeste 16 Sur 0 -- -- 32
2018-05-05 16:00:00 24 5 Este 18 Sudoeste 0 -- -- 34
2018-05-05 15:00:00 23.5 6 Sudeste 18 Sudeste 0 -- -- 39
2018-05-05 14:00:00 22.6 4 Este 15 Este 0 -- -- 41
2018-05-05 13:00:00 21.2 6 Este 14 Este 0 -- -- 45
2018-05-05 12:00:00 20.5 5 Este 12 Este 0 -- -- 46
2018-05-05 11:00:00 18.4 2 Nordeste 8 Nordeste 0 -- -- 56
2018-05-05 10:00:00 16 5 Este 12 Este 0 -- -- 68
2018-05-05 09:00:00 11.4 0 Calma 6 Este 0 -- -- 88
2018-05-05 08:00:00 8.8 4 Nordeste 5 Este 0 -- -- 95
2018-05-05 07:00:00 8.7 4 Nordeste 5 Nordeste 0 -- -- 94
2018-05-05 06:00:00 8.8 0 Calma 6 Nordeste 0 -- -- 93
2018-05-05 05:00:00 9.1 0 Calma 5 Este 0 -- -- 92
2018-05-05 04:00:00 9.7 3 Nordeste 6 Nordeste 0 -- -- 91
2018-05-05 03:00:00 10.3 0 Calma 3 Nordeste 0 -- -- 88
2018-05-05 02:00:00 11.1 2 Norte 6 Sudoeste 0 -- -- 87
2018-05-05 01:00:00 12.1 4 Oeste 9 Oeste 0 -- -- 78
2018-05-05 00:00:00 13.1 7 Oeste 14 Oeste 0 -- -- 74
2018-05-04 23:00:00 13.5 9 Sudoeste 17 Sudoeste 0 -- -- 69
2018-05-04 22:00:00 15.6 9 Sudoeste 24 Sudoeste 0 -- -- 63
2018-05-04 21:00:00 19.2 2 Norte 7 Nordeste 0 -- -- 49
2018-05-04 20:00:00 21.8 2 Nordeste 10 Sudoeste 0 -- -- 34
2018-05-04 19:00:00 20.1 4 Sudoeste 9 Sur 0 -- -- 42
2018-05-04 18:00:00 21.9 5 Oeste 15 Este 0 -- -- 31
2018-05-04 17:00:00 21.8 7 Nordeste 19 Nordeste 0 -- -- 35
2018-05-04 16:00:00 21.2 6 Nordeste 19 Norte 0 -- -- 33
2018-05-04 15:00:00 21 4 Norte 20 Norte 0 -- -- 40
2018-05-04 14:00:00 19.5 5 Norte 12 Sudeste 0 -- -- 41
2018-05-04 13:00:00 18.7 5 Nordeste 16 Este 0 -- -- 43
2018-05-04 12:00:00 17.3 7 Este 18 Nordeste 0 -- -- 47
2018-05-04 11:00:00 16 7 Nordeste 15 Nordeste 0 -- -- 50
2018-05-04 10:00:00 14.9 8 Nordeste 15 Nordeste 0 -- -- 55
2018-05-04 09:00:00 12 6 Norte 12 Norte 0 -- -- 65
2018-05-04 08:00:00 9.2 5 Norte 11 Norte 0 -- -- 77
2018-05-04 07:00:00 8.8 3 Sudoeste 9 Nordeste 0.2 -- -- 78
2018-05-04 06:00:00 9.7 6 Nordeste 12 Nordeste 0 -- -- 82
2018-05-04 05:00:00 10.4 6 Norte 12 Norte 0 -- -- 82
2018-05-04 04:00:00 10.9 0 Calma 10 Norte 0 -- -- 81
2018-05-04 03:00:00 11.2 4 Nordeste 8 Nordeste 0 -- -- 85
2018-05-04 02:00:00 12.5 3 Nordeste 5 Nordeste 0 -- -- 83
2018-05-04 01:00:00 12.8 3 Nordeste 6 Nordeste 0 -- -- 82
2018-05-04 00:00:00 12.4 3 Nordeste 7 Este 0 -- -- 82
2018-05-03 23:00:00 12.4 4 Este 7 Este 0 -- -- 84
2018-05-03 22:00:00 13.2 2 Nordeste 4 Norte 0 -- -- 83
2018-05-03 21:00:00 15 0 Calma 5 Este 0 -- -- 80
2018-05-03 20:00:00 15.9 6 Nordeste 27 Nordeste 0.2 -- -- 67
2018-05-03 19:00:00 18.2 4 Nordeste 18 Noroeste 0 -- -- 59
2018-05-03 18:00:00 21.1 6 Noroeste 16 Norte 0 -- -- 41
2018-05-03 17:00:00 20.1 4 Sudoeste 13 Oeste 0 -- -- 45
2018-05-03 16:00:00 20.8 4 Noroeste 13 Oeste 0 -- -- 43
2018-05-03 15:00:00 19.4 5 Sudoeste 17 Sudoeste 0 -- -- 50
2018-05-03 14:00:00 18.5 6 Norte 12 Nordeste 0 -- -- 51
2018-05-03 13:00:00 18.6 4 Oeste 17 Sudeste 0 -- -- 52
2018-05-03 12:00:00 17.5 5 Este 18 Nordeste 0 -- -- 54
2018-05-03 11:00:00 16.2 8 Nordeste 18 Nordeste 0 -- -- 57
2018-05-03 10:00:00 13.7 7 Norte 14 Norte 0 -- -- 67
2018-05-03 09:00:00 9.4 3 Norte 8 Norte 0 -- -- 88
2018-05-03 08:00:00 7.9 2 Norte 14 Norte 0 -- -- 89
2018-05-03 07:00:00 8 5 Norte 14 Noroeste 0 -- -- 86
2018-05-03 06:00:00 8.8 6 Norte 16 Noroeste 0 -- -- 81
2018-05-03 05:00:00 9.5 7 Norte 19 Norte 0 -- -- 77
2018-05-03 04:00:00 10.3 4 Norte 13 Noroeste 0 -- -- 72
2018-05-03 03:00:00 9.9 5 Norte 14 Norte 0 -- -- 72
2018-05-03 02:00:00 10.1 5 Norte 23 Noroeste 0 -- -- 66
2018-05-03 01:00:00 8.9 3 Nordeste 13 Noroeste 0 -- -- 73
2018-05-03 00:00:00 10.1 6 Norte 17 Noroeste 0 -- -- 64
2018-05-02 23:00:00 10.2 3 Nordeste 8 Noroeste 0 -- -- 74
2018-05-02 22:00:00 12.2 3 Noroeste 9 Oeste 0 -- -- 67
2018-05-02 21:00:00 14.3 6 Oeste 25 Sudoeste 0 -- -- 59
2018-05-02 20:00:00 16.6 13 Sudoeste 24 Sudoeste 0 -- -- 50
2018-05-02 19:00:00 17.3 13 Sudoeste 23 Sudoeste 0 -- -- 46
2018-05-02 18:00:00 18.4 16 Sudoeste 26 Sudoeste 0 -- -- 45
2018-05-02 17:00:00 18.3 12 Oeste 28 Sudoeste 0 -- -- 44
2018-05-02 16:00:00 16.3 2 Sudeste 18 Sudoeste 0 -- -- 52
2018-05-02 15:00:00 15.4 6 Sur 21 Sudoeste 0 -- -- 59
2018-05-02 14:00:00 13.6 3 Sur 12 Sudeste 0 -- -- 68
2018-05-02 13:00:00 14.1 6 Este 15 Este 0 -- -- 67
2018-05-02 12:00:00 13.2 5 Sudeste 17 Este 0 -- -- 73
2018-05-02 11:00:00 11.8 5 Este 14 Este 0 -- -- 74
2018-05-02 10:00:00 10.3 3 Nordeste 9 Nordeste 0 -- -- 74
2018-05-02 09:00:00 6.6 6 Nordeste 13 Norte 0 -- -- 98
2018-05-02 08:00:00 4.2 4 Nordeste 6 Este 0 -- -- 97
2018-05-02 07:00:00 3.9 3 Nordeste 5 Nordeste 0 -- -- 96
2018-05-02 06:00:00 4.1 0 Calma 6 Nordeste 0 -- -- 96
2018-05-02 05:00:00 4.6 2 Nordeste 5 Nordeste 0 -- -- 96
2018-05-02 04:00:00 5.1 3 Nordeste 5 Nordeste 0 -- -- 96
2018-05-02 03:00:00 5.7 2 Nordeste 5 Oeste 0 -- -- 95
2018-05-02 02:00:00 5.9 0 Calma 5 Oeste 0 -- -- 94
2018-05-02 01:00:00 5.6 3 Oeste 7 Oeste 0 -- -- 93
2018-05-02 00:00:00 6.2 0 Calma 3 Nordeste 0 -- -- 92
2018-05-01 23:00:00 7 2 Nordeste 4 Noroeste 0 -- -- 92
2018-05-01 22:00:00 8 0 Calma 5 Este 0 -- -- 89
2018-05-01 21:00:00 9.7 3 Este 14 Este 0 -- -- 83
2018-05-01 20:00:00 11.8 7 Este 17 Este 0 -- -- 75
2018-05-01 19:00:00 13.1 6 Oeste 13 Oeste 0 -- -- 66
2018-05-01 18:00:00 11.8 4 Oeste 14 Noroeste 0.8 -- -- 78
2018-05-01 17:00:00 11.4 3 Sudeste 13 Sudoeste 0 -- -- 72
2018-05-01 16:00:00 10.9 6 Oeste 14 Sudoeste 0 -- -- 82
2018-05-01 15:00:00 8.3 6 Este 16 Este 0.2 -- -- 89
2018-05-01 14:00:00 6.1 5 Sudoeste 17 Nordeste 1.8 -- -- 93
2018-05-01 13:00:00 7.3 9 Norte 30 Norte 2.6 -- -- 87
2018-05-01 12:00:00 9.5 2 Este 10 Este 0.4 -- -- 87
2018-05-01 11:00:00 8.8 2 Nordeste 14 Oeste 0.6 -- -- 85
2018-05-01 10:00:00 9 3 Norte 7 Norte 0 -- -- 85
2018-05-01 09:00:00 7.7 0 Calma 3 Sur 0 -- -- 92
2018-05-01 08:00:00 5.9 0 Calma 12 Noroeste 0 -- -- 91
2018-05-01 07:00:00 5.4 3 Nordeste 16 Norte 0 -- -- 90
2018-05-01 06:00:00 6.2 8 Norte 14 Norte 0 -- -- 91
2018-05-01 05:00:00 5.4 4 Noroeste 10 Noroeste 0 -- -- 94
2018-05-01 04:00:00 5.5 3 Nordeste 6 Este 0 -- -- 93
2018-05-01 03:00:00 5.8 3 Nordeste 4 Nordeste 0 -- -- 92
2018-05-01 02:00:00 6.2 0 Calma 3 Sur 0 -- -- 90
2018-05-01 01:00:00 7.5 0 Calma 4 Nordeste 0.2 -- -- 89
2018-05-01 00:00:00 7.7 2 Norte 3 Noroeste 0 -- -- 88
2018-04-30 23:00:00 9 2 Oeste 20 Norte 0 -- -- 82
2018-04-30 22:00:00 8.7 3 Oeste 7 Oeste 0 -- -- 76
2018-04-30 21:00:00 9.6 6 Sudoeste 18 Oeste 0 -- -- 71
2018-04-30 20:00:00 11.6 10 Sudoeste 19 Oeste 0 -- -- 61
2018-04-30 19:00:00 13.9 6 Norte 15 Norte 0 -- -- 52
2018-04-30 18:00:00 14.1 3 Norte 28 Sudoeste 0 -- -- 47
2018-04-30 17:00:00 13.6 4 Sudeste 14 Sudoeste 0.2 -- -- 50
2018-04-30 16:00:00 12.9 3 Noroeste 15 Sur 0 -- -- 53
2018-04-30 15:00:00 11.7 0 Calma 15 Norte 0 -- -- 64
2018-04-30 14:00:00 11.1 4 Sudoeste 18 Oeste 0 -- -- 65
2018-04-30 13:00:00 10.5 3 Noroeste 15 Sudoeste 0.2 -- -- 70
2018-04-30 12:00:00 10.8 4 Sudeste 13 Sudoeste 0 -- -- 67
2018-04-30 11:00:00 10.6 3 Nordeste 9 Nordeste 0 -- -- 64
2018-04-30 10:00:00 8.3 2 Nordeste 8 Nordeste 0 -- -- 78
2018-04-30 09:00:00 6.6 2 Norte 10 Noroeste 0 -- -- 90
2018-04-30 08:00:00 5.3 5 Noroeste 19 Norte 0 -- -- 90
2018-04-30 07:00:00 4.8 6 Noroeste 16 Oeste 0 -- -- 91
2018-04-30 06:00:00 4.8 2 Oeste 14 Noroeste 0 -- -- 91
2018-04-30 05:00:00 5 4 Noroeste 14 Noroeste 0 -- -- 89
2018-04-30 04:00:00 5.7 4 Noroeste 13 Noroeste 0 -- -- 90
2018-04-30 03:00:00 4.9 3 Sudoeste 6 Oeste 0 -- -- 93
2018-04-30 02:00:00 5.4 0 Calma 4 Noroeste 0 -- -- 93
2018-04-30 01:00:00 6.6 2 Norte 4 Sur 0 -- -- 93
2018-04-30 00:00:00 6.8 4 Sudoeste 8 Oeste 0 -- -- 90
2018-04-29 23:00:00 7.8 2 Oeste 13 Oeste 0 -- -- 90
2018-04-29 22:00:00 8.3 5 Oeste 15 Sudoeste 0.2 -- -- 91
2018-04-29 21:00:00 9.7 7 Oeste 28 Oeste 0.6 -- -- 83
2018-04-29 20:00:00 12 15 Oeste 47 Oeste 0.2 -- -- 65
2018-04-29 19:00:00 13.2 21 Oeste 43 Sudoeste 0 -- -- 55
2018-04-29 18:00:00 13.5 24 Sudoeste 41 Sudoeste 0 -- -- 51
2018-04-29 17:00:00 14.1 13 Sudoeste 38 Sudoeste 0.2 -- -- 52
2018-04-29 16:00:00 14.2 21 Sudoeste 41 Sudoeste 0 -- -- 57
2018-04-29 15:00:00 13 15 Sudoeste 33 Sudoeste 0 -- -- 67
2018-04-29 14:00:00 10.9 15 Sudoeste 40 Sudoeste 0 -- -- 78
2018-04-29 13:00:00 10.6 13 Sudoeste 33 Sudoeste 0.2 -- -- 73
2018-04-29 12:00:00 9.6 15 Sudoeste 31 Sudoeste 0 -- -- 76
2018-04-29 11:00:00 8.2 13 Sudoeste 30 Sudoeste 0 -- -- 86
2018-04-29 10:00:00 7.6 14 Sudoeste 32 Sudoeste 0 -- -- 87
2018-04-29 09:00:00 6.5 13 Oeste 30 Oeste 0 -- -- 94
2018-04-29 08:00:00 5.9 14 Sudoeste 28 Oeste 0 -- -- 94
2018-04-29 07:00:00 6 14 Sudoeste 28 Sudoeste 0 -- -- 94
2018-04-29 06:00:00 6.2 11 Sudoeste 24 Sur 0 -- -- 94
2018-04-29 05:00:00 6.4 9 Sudoeste 23 Sudoeste 0 -- -- 93
2018-04-29 04:00:00 6.6 14 Sudoeste 39 Sudoeste 0 -- -- 93
2018-04-29 03:00:00 6.8 18 Sudoeste 39 Sudoeste 0.2 -- -- 92
2018-04-29 02:00:00 7.6 20 Sudoeste 41 Sudoeste 3.2 -- -- 92
2018-04-29 01:00:00 8.8 26 Sudoeste 48 Sudoeste 0.4 -- -- 89
2018-04-29 00:00:00 9.7 26 Sudoeste 46 Sudoeste 0 -- -- 78
2018-04-28 23:00:00 10.4 22 Sudoeste 44 Oeste 0 -- -- 72
2018-04-28 22:00:00 11 20 Sudoeste 42 Sudoeste 0 -- -- 69
2018-04-28 21:00:00 12.4 22 Sudoeste 36 Sudoeste 0 -- -- 62
2018-04-28 20:00:00 14.4 20 Sudoeste 44 Sudoeste 0 -- -- 47
2018-04-28 19:00:00 16 22 Sudoeste 43 Sudoeste 0 -- -- 45
2018-04-28 18:00:00 17.3 21 Sudoeste 41 Sudoeste 0 -- -- 38
2018-04-28 17:00:00 17.4 27 Sudoeste 44 Sudoeste 0 -- -- 39
2018-04-28 16:00:00 17.8 21 Sudoeste 39 Sudoeste 0 -- -- 42
2018-04-28 15:00:00 17.2 19 Sudoeste 38 Sudoeste 0 -- -- 47
2018-04-28 14:00:00 16.2 20 Sudoeste 35 Sudoeste 0 -- -- 55
2018-04-28 13:00:00 15.2 19 Sudoeste 31 Sudoeste 0 -- -- 67
2018-04-28 12:00:00 13.3 8 Sudoeste 15 Sudoeste 0 -- -- 79
2018-04-28 11:00:00 13.1 3 Noroeste 15 Norte 0 -- -- 73
2018-04-28 10:00:00 13.4 6 Oeste 12 Oeste 0 -- -- 82
2018-04-28 09:00:00 12.1 0 Calma 5 Norte 0 -- -- 92
2018-04-28 08:00:00 10.9 0 Calma 4 Nordeste 0 -- -- 94
2018-04-28 07:00:00 10.4 2 Nordeste 5 Noroeste 0 -- -- 94
2018-04-28 06:00:00 10.1 0 Calma 4 Sur 0 -- -- 92
2018-04-28 05:00:00 10.9 2 Nordeste 4 Noroeste 0 -- -- 89
2018-04-28 04:00:00 12.4 2 Noroeste 14 Noroeste 0 -- -- 83
2018-04-28 03:00:00 13.4 5 Noroeste 16 Norte 0 -- -- 78
2018-04-28 02:00:00 13.5 4 Noroeste 10 Noroeste 0 -- -- 76
2018-04-28 01:00:00 14.3 3 Noroeste 10 Sudoeste 0 -- -- 76
2018-04-28 00:00:00 15.3 10 Oeste 18 Sudoeste 0 -- -- 77
2018-04-27 23:00:00 16.6 8 Oeste 23 Sudoeste 0 -- -- 74
2018-04-27 22:00:00 17.9 16 Sudoeste 27 Sur 0 -- -- 71
2018-04-27 21:00:00 19.1 12 Sudoeste 26 Sudoeste 0 -- -- 65
2018-04-27 20:00:00 21.8 14 Sudoeste 27 Sudoeste 0 -- -- 59
2018-04-27 19:00:00 21.2 8 Sudoeste 18 Oeste 0 -- -- 62
2018-04-27 18:00:00 22.1 12 Sudoeste 25 Sudoeste 0 -- -- 61
2018-04-27 17:00:00 23.8 13 Sudoeste 25 Sudoeste 0 -- -- 52
2018-04-27 16:00:00 22 6 Nordeste 16 Sur 0 -- -- 53
2018-04-27 15:00:00 21.8 7 Oeste 19 Sudoeste 0 -- -- 51
2018-04-27 14:00:00 19.6 10 Oeste 21 Oeste 0 -- -- 64
2018-04-27 13:00:00 16.2 6 Oeste 19 Sudoeste 0 -- -- 84
2018-04-27 12:00:00 14.7 8 Sudoeste 15 Oeste 0 -- -- 92
2018-04-27 11:00:00 14.2 7 Sudoeste 18 Sur 0 -- -- 91
2018-04-27 10:00:00 13.5 11 Sudoeste 23 Sudoeste 0 -- -- 93
2018-04-27 09:00:00 13.6 9 Sudoeste 22 Sudoeste 0 -- -- 95
2018-04-27 08:00:00 13.2 10 Sudoeste 18 Sudoeste 0 -- -- 94
2018-04-27 07:00:00 13.1 3 Sudoeste 8 Sudoeste 0 -- -- 92
2018-04-27 06:00:00 13.5 2 Sur 11 Sudoeste 0 -- -- 91
2018-04-27 05:00:00 13.4 9 Sudoeste 19 Sudoeste 0 -- -- 89
2018-04-27 04:00:00 13.9 9 Sudoeste 20 Sudoeste 0 -- -- 86
2018-04-27 03:00:00 14.6 10 Sudoeste 21 Sudoeste 0 -- -- 84
2018-04-27 02:00:00 15.4 11 Sudoeste 27 Sudoeste 0 -- -- 88
2018-04-27 01:00:00 15.9 13 Sudoeste 35 Sudoeste 0 -- -- 87
2018-04-27 00:00:00 17 19 Sudoeste 41 Sudoeste 0 -- -- 86
2018-04-26 23:00:00 17.6 18 Sudoeste 35 Sudoeste 0 -- -- 87
2018-04-26 22:00:00 18.4 18 Sudoeste 34 Sudoeste 0 -- -- 82
2018-04-26 21:00:00 21.1 22 Sudoeste 36 Sudoeste 0 -- -- 64
2018-04-26 20:00:00 24.2 13 Sudoeste 22 Sudoeste 0 -- -- 45
2018-04-26 19:00:00 25.7 13 Sudoeste 22 Sudoeste 0 -- -- 40
2018-04-26 18:00:00 26 5 Sudoeste 15 Sudoeste 0 -- -- 39
2018-04-26 17:00:00 26.3 6 Norte 16 Este 0 -- -- 39
2018-04-26 16:00:00 25.8 6 Sudeste 17 Este 0 -- -- 38
2018-04-26 15:00:00 24.6 7 Este 20 Este 0 -- -- 42
2018-04-26 14:00:00 23.2 7 Sur 17 Este 0 -- -- 52
2018-04-26 13:00:00 22.3 7 Sudeste 17 Este 0 -- -- 56
2018-04-26 12:00:00 20.4 10 Nordeste 16 Nordeste 0 -- -- 61
2018-04-26 11:00:00 18.7 7 Nordeste 14 Este 0 -- -- 66
2018-04-26 10:00:00 16.8 5 Este 12 Este 0 -- -- 81
2018-04-26 09:00:00 13.6 2 Este 8 Norte 0 -- -- 96
2018-04-26 08:00:00 13.2 5 Nordeste 9 Nordeste 0 -- -- 96
2018-04-26 07:00:00 13.5 3 Este 9 Sudeste 0 -- -- 96
2018-04-26 06:00:00 13.5 0 Calma 12 Nordeste 0 -- -- 96
2018-04-26 05:00:00 14.1 4 Este 11 Este 0 -- -- 95
2018-04-26 04:00:00 13.4 4 Nordeste 8 Norte 0 -- -- 92
2018-04-26 03:00:00 13.9 2 Nordeste 8 Nordeste 0 -- -- 90
2018-04-26 02:00:00 14.7 0 Calma 9 Norte 0 -- -- 92
2018-04-26 01:00:00 15.9 2 Nordeste 6 Nordeste 0 -- -- 90
2018-04-26 00:00:00 16.8 0 Calma 12 Oeste 0 -- -- 90
2018-04-25 23:00:00 17.8 8 Oeste 15 Oeste 0.8 -- -- 87
2018-04-25 22:00:00 19.7 2 Este 20 Sur 0.4 -- -- 75
2018-04-25 21:00:00 20.6 12 Sudoeste 25 Oeste 0 -- -- 67
2018-04-25 20:00:00 21.9 12 Sudoeste 24 Sudoeste 0 -- -- 60
2018-04-25 19:00:00 24.1 14 Sudoeste 24 Sudoeste 0 -- -- 53
2018-04-25 18:00:00 25.7 11 Oeste 19 Sudoeste 0 -- -- 46
2018-04-25 17:00:00 25.1 6 Sudoeste 16 Sudoeste 0 -- -- 46
2018-04-25 16:00:00 24.1 6 Sudeste 17 Sur 0 -- -- 48
2018-04-25 15:00:00 23.9 6 Este 18 Este 0 -- -- 46
2018-04-25 14:00:00 22.7 7 Este 18 Este 0 -- -- 46
2018-04-25 13:00:00 22.3 6 Este 20 Este 0 -- -- 49
2018-04-25 12:00:00 20.5 6 Nordeste 12 Este 0 -- -- 50
2018-04-25 11:00:00 17.8 3 Nordeste 5 Nordeste 0 -- -- 73
2018-04-25 10:00:00 15.4 3 Sudoeste 10 Norte 0 -- -- 90
2018-04-25 09:00:00 13.3 5 Nordeste 11 Norte 0 -- -- 95
2018-04-25 08:00:00 12.4 4 Nordeste 9 Norte 0 -- -- 94
2018-04-25 07:00:00 12 3 Nordeste 8 Nordeste 0 -- -- 94
2018-04-25 06:00:00 12.6 2 Norte 6 Noroeste 0 -- -- 93
2018-04-25 05:00:00 12.8 2 Oeste 8 Sudoeste 0 -- -- 92
2018-04-25 04:00:00 13.4 4 Noroeste 7 Sur 0 -- -- 92
2018-04-25 03:00:00 14.1 3 Este 9 Sudoeste 0 -- -- 87
2018-04-25 02:00:00 15.2 3 Nordeste 8 Este 0 -- -- 83
2018-04-25 01:00:00 17.2 4 Nordeste 27 Norte 0 -- -- 72
2018-04-25 00:00:00 17.6 10 Norte 25 Norte 0 -- -- 70
2018-04-24 23:00:00 18.4 12 Oeste 28 Oeste 0 -- -- 70
2018-04-24 22:00:00 19.4 15 Oeste 48 Sur 0 -- -- 68
2018-04-24 21:00:00 22.4 5 Sudoeste 15 Noroeste 0 -- -- 48
2018-04-24 20:00:00 25.6 4 Norte 16 Norte 0 -- -- 36
2018-04-24 19:00:00 27 5 Norte 16 Norte 0 -- -- 32
2018-04-24 18:00:00 26.6 6 Nordeste 17 Nordeste 0 -- -- 31
2018-04-24 17:00:00 26.6 7 Este 22 Nordeste 0 -- -- 28
2018-04-24 16:00:00 26.5 6 Este 18 Nordeste 0 -- -- 27
2018-04-24 15:00:00 26.1 7 Este 24 Este 0 -- -- 28
2018-04-24 14:00:00 25.5 10 Este 26 Sudeste 0 -- -- 30
2018-04-24 13:00:00 24.7 12 Nordeste 24 Nordeste 0 -- -- 30
2018-04-24 12:00:00 23 16 Nordeste 28 Nordeste 0 -- -- 35
2018-04-24 11:00:00 21.6 13 Nordeste 24 Este 0 -- -- 41
2018-04-24 10:00:00 19 6 Nordeste 13 Nordeste 0 -- -- 56
2018-04-24 09:00:00 18.1 4 Nordeste 14 Nordeste 0 -- -- 59
2018-04-24 08:00:00 18 8 Nordeste 16 Nordeste 0 -- -- 56
2018-04-24 07:00:00 17.8 2 Norte 18 Norte 0 -- -- 57
2018-04-24 06:00:00 18.6 13 Norte 24 Norte 0 -- -- 52
2018-04-24 05:00:00 17.4 4 Nordeste 8 Nordeste 0 -- -- 66
2018-04-24 04:00:00 17.1 3 Nordeste 6 Sur 0 -- -- 66
2018-04-24 03:00:00 17.8 6 Nordeste 9 Norte 0 -- -- 61
2018-04-24 02:00:00 19.1 0 Calma 22 Nordeste 0 -- -- 56
2018-04-24 01:00:00 19.6 12 Nordeste 26 Nordeste 0 -- -- 51
2018-04-24 00:00:00 18.8 6 Norte 10 Norte 0 -- -- 56
2018-04-23 23:00:00 19.2 5 Sudoeste 11 Sudoeste 0 -- -- 54
2018-04-23 22:00:00 20.3 3 Nordeste 14 Norte 0 -- -- 52
2018-04-23 21:00:00 21.7 9 Nordeste 17 Nordeste 0 -- -- 47
2018-04-23 20:00:00 23.8 8 Nordeste 26 Este 0 -- -- 41
2018-04-23 19:00:00 24.5 15 Nordeste 28 Nordeste 0 -- -- 39
2018-04-23 18:00:00 25.1 5 Este 23 Sudeste 0 -- -- 40
2018-04-23 17:00:00 25 13 Nordeste 28 Nordeste 0 -- -- 38
2018-04-23 16:00:00 25.7 13 Nordeste 27 Nordeste 0 -- -- 39
2018-04-23 15:00:00 22.6 16 Nordeste 33 Nordeste 0 -- -- 42
2018-04-23 14:00:00 22.3 14 Nordeste 35 Este 0 -- -- 47
2018-04-23 13:00:00 22.4 18 Nordeste 39 Este 0 -- -- 45
2018-04-23 12:00:00 21.5 15 Nordeste 29 Nordeste 0 -- -- 53
2018-04-23 11:00:00 19 17 Nordeste 33 Norte 0 -- -- 64
2018-04-23 10:00:00 16.8 15 Norte 32 Norte 0 -- -- 72
2018-04-23 09:00:00 15.7 18 Norte 34 Norte 0 -- -- 77
2018-04-23 08:00:00 13.9 11 Norte 27 Norte 0 -- -- 87
2018-04-23 07:00:00 14.3 12 Norte 24 Noroeste 0 -- -- 85
2018-04-23 06:00:00 15.3 8 Norte 28 Norte 0 -- -- 76
2018-04-23 05:00:00 15.4 14 Norte 28 Nordeste 0.4 -- -- 80
2018-04-23 04:00:00 15.2 6 Nordeste 25 Nordeste 0.2 -- -- 89
2018-04-23 03:00:00 15.5 0 Calma 12 Sur 0.4 -- -- 90
2018-04-23 02:00:00 16.9 6 Sur 21 Sur 0 -- -- 77
2018-04-23 01:00:00 17.5 5 Norte 13 Nordeste 0 -- -- 75
2018-04-23 00:00:00 17.8 8 Norte 16 Sudoeste 0 -- -- 72
2018-04-22 23:00:00 18.1 8 Sudoeste 25 Sur 0 -- -- 71
2018-04-22 22:00:00 18.7 4 Sudoeste 11 Sudoeste 0 -- -- 69
2018-04-22 21:00:00 20.2 7 Sudoeste 12 Oeste 0 -- -- 63
2018-04-22 20:00:00 24.1 3 Sudoeste 9 Sudoeste 0 -- -- 51
2018-04-22 19:00:00 25.3 5 Sudoeste 13 Sudeste 0 -- -- 45
2018-04-22 18:00:00 24.8 4 Nordeste 13 Este 0 -- -- 43
2018-04-22 17:00:00 24.6 6 Nordeste 11 Este 0 -- -- 45
2018-04-22 16:00:00 24.2 4 Nordeste 12 Nordeste 0 -- -- 45
2018-04-22 15:00:00 23.6 5 Este 14 Sudeste 0 -- -- 46
2018-04-22 14:00:00 22.2 4 Sudeste 14 Este 0 -- -- 49
2018-04-22 13:00:00 18.3 3 Noroeste 17 Nordeste 0.6 -- -- 70
2018-04-22 12:00:00 17.9 5 Nordeste 22 Nordeste 0 -- -- 65
2018-04-22 11:00:00 16 4 Norte 13 Nordeste 0 -- -- 73
2018-04-22 10:00:00 16.5 7 Nordeste 20 Norte 0 -- -- 68
2018-04-22 09:00:00 14.8 12 Nordeste 22 Norte 0 -- -- 76
2018-04-22 08:00:00 13.8 13 Norte 25 Norte 0 -- -- 82
2018-04-22 07:00:00 13.6 15 Norte 27 Nordeste 0 -- -- 84
2018-04-22 06:00:00 13.7 12 Norte 26 Norte 0 -- -- 85
2018-04-22 05:00:00 13.8 13 Norte 31 Norte 0 -- -- 85
2018-04-22 04:00:00 14.5 18 Norte 31 Nordeste 0 -- -- 82
2018-04-22 03:00:00 16.4 15 Norte 30 Nordeste 0 -- -- 73
2018-04-22 02:00:00 17.5 17 Nordeste 30 Nordeste 0 -- -- 67
2018-04-22 01:00:00 17.4 14 Nordeste 36 Nordeste 0 -- -- 69
2018-04-22 00:00:00 17.5 8 Noroeste 27 Norte 0 -- -- 67